Time;durP1;ratioP1;P1;durP2;ratioP2;P2;SDS_P1;SDS_P2;PMS_P1;PMS_P2;Temp;Humidity;BMP_temperature;BMP_pressure;BME280_temperature;BME280_humidity;BME280_pressure;Samples;Min_cycle;Max_cycle;Signal;HPM_P1;HPM_P2
2024/01/04 00:01:13;;;;;;;13.65;3.30;;;;;;;-23.19;53.38;99337.72;5093197;28;20031;-55
2024/01/04 00:03:39;;;;;;;13.35;3.40;;;;;;;-23.17;53.49;99338.66;5092789;28;20032;-54
2024/01/04 00:06:05;;;;;;;6.07;2.03;;;;;;;-23.53;53.69;99300.72;5092877;28;20404;-55
2024/01/04 00:08:30;;;;;;;15.38;3.75;;;;;;;-23.28;53.77;99336.53;5092232;28;20032;-52
2024/01/04 00:10:56;;;;;;;14.27;3.65;;;;;;;-23.16;53.58;99335.31;5092057;28;20023;-51
2024/01/04 00:13:21;;;;;;;3.25;0.82;;;;;;;-23.18;53.85;99325.13;5092798;28;20084;-53
2024/01/04 00:15:47;;;;;;;7.95;1.98;;;;;;;-23.27;53.58;99323.06;5093241;28;20028;-50
2024/01/04 00:18:12;;;;;;;2.63;1.17;;;;;;;-22.93;53.16;99323.69;5091379;28;20024;-55
2024/01/04 00:20:38;;;;;;;13.70;3.55;;;;;;;-23.20;53.46;99329.25;5092543;28;20218;-56
2024/01/04 00:23:04;;;;;;;12.18;4.47;;;;;;;-23.32;53.46;99332.13;5092923;28;20111;-56
2024/01/04 00:25:29;;;;;;;7.32;2.45;;;;;;;-23.03;53.24;99332.56;5092541;28;20024;-54
2024/01/04 00:27:55;;;;;;;12.02;3.00;;;;;;;-23.33;53.49;99312.66;5092598;28;20086;-51
2024/01/04 00:30:20;;;;;;;5.25;1.45;;;;;;;-23.24;53.69;99336.66;5092779;28;20028;-52
2024/01/04 00:32:46;;;;;;;9.68;2.20;;;;;;;-23.31;53.79;99321.19;5092828;28;20374;-55
2024/01/04 00:35:11;;;;;;;11.82;3.05;;;;;;;-23.13;53.73;99320.28;5092356;28;20122;-57
2024/01/04 00:37:37;;;;;;;5.63;3.00;;;;;;;-23.23;54.05;99323.16;5092512;28;20020;-54
2024/01/04 00:40:03;;;;;;;7.15;2.55;;;;;;;-23.24;53.52;99326.53;5092949;28;20115;-53
2024/01/04 00:42:29;;;;;;;10.57;3.03;;;;;;;-23.25;54.03;99320.63;5092503;28;20032;-56
2024/01/04 00:44:54;;;;;;;6.35;2.20;;;;;;;-23.43;53.88;99292.72;5092534;28;20027;-53
2024/01/04 00:47:19;;;;;;;9.20;2.85;;;;;;;-23.30;54.31;99311.91;5092619;28;20036;-57
2024/01/04 00:49:45;;;;;;;8.70;2.42;;;;;;;-23.35;54.29;99301.56;5092992;28;20024;-54
2024/01/04 00:52:10;;;;;;;7.68;2.55;;;;;;;-23.26;54.12;99312.13;5091326;28;20094;-51
2024/01/04 00:54:36;;;;;;;5.93;2.33;;;;;;;-23.23;54.20;99302.88;5092246;28;20468;-52
2024/01/04 00:57:01;;;;;;;9.02;2.42;;;;;;;-23.30;54.42;99307.72;5092734;28;20028;-53
2024/01/04 00:59:27;;;;;;;7.45;1.92;;;;;;;-23.24;54.68;99306.25;5093007;28;20049;-52
2024/01/04 01:01:53;;;;;;;1.60;0.90;;;;;;;-23.01;54.37;99294.59;5092344;28;20056;-55
2024/01/04 01:04:18;;;;;;;3.80;1.98;;;;;;;-23.13;53.99;99290.72;5091985;28;20060;-51
2024/01/04 01:06:44;;;;;;;7.78;2.78;;;;;;;-23.20;54.17;99297.97;5092468;28;20035;-51
2024/01/04 01:09:09;;;;;;;7.07;2.00;;;;;;;-23.28;54.12;99293.44;5092349;28;20031;-56
2024/01/04 01:11:35;;;;;;;9.60;2.60;;;;;;;-23.19;54.52;99287.91;5091974;28;20067;-54
2024/01/04 01:14:00;;;;;;;7.63;2.00;;;;;;;-23.22;54.32;99290.31;5091752;28;20111;-54
2024/01/04 01:16:26;;;;;;;4.43;1.88;;;;;;;-22.93;53.64;99288.19;5091934;28;20032;-52
2024/01/04 01:18:51;;;;;;;7.57;2.70;;;;;;;-23.48;53.79;99233.41;5092259;28;20052;-55
2024/01/04 01:21:17;;;;;;;13.23;2.17;;;;;;;-23.54;54.04;99221.31;5091796;28;20085;-56
2024/01/04 01:23:42;;;;;;;5.03;1.10;;;;;;;-23.16;54.11;99277.00;5091625;28;20385;-57
2024/01/04 01:26:08;;;;;;;7.00;2.22;;;;;;;-23.23;54.13;99282.63;5091787;28;20023;-55
2024/01/04 01:28:33;;;;;;;11.73;2.67;;;;;;;-23.27;54.61;99277.44;5091228;28;20450;-53
2024/01/04 01:31:01;;;;;;;7.13;2.28;;;;;;;-23.25;54.45;99287.66;5092153;28;20025;-54
2024/01/04 01:33:27;;;;;;;12.18;2.92;;;;;;;-23.29;54.37;99284.13;5091587;28;20058;-52
2024/01/04 01:35:52;;;;;;;7.43;2.28;;;;;;;-23.34;54.57;99270.38;5094055;28;20028;-54
2024/01/04 01:38:18;;;;;;;11.32;2.38;;;;;;;-23.66;54.76;99203.03;5095730;28;20133;-52
2024/01/04 01:40:44;;;;;;;8.13;2.20;;;;;;;-23.21;54.71;99268.34;5095570;28;20196;-51
2024/01/04 01:43:11;;;;;;;8.15;2.65;;;;;;;-23.19;54.62;99275.22;5095181;28;20020;-58
2024/01/04 01:45:36;;;;;;;10.13;2.72;;;;;;;-23.15;54.95;99271.16;5095038;28;20441;-56
2024/01/04 01:48:04;;;;;;;10.18;2.70;;;;;;;-23.12;54.65;99282.31;5095401;28;20063;-55
2024/01/04 01:50:31;;;;;;;9.57;2.60;;;;;;;-23.12;54.79;99273.84;5095542;28;20035;-54
2024/01/04 01:52:57;;;;;;;10.52;3.00;;;;;;;-23.08;54.94;99283.31;5095092;28;20439;-57
2024/01/04 01:55:24;;;;;;;6.65;2.40;;;;;;;-23.05;54.79;99278.38;5095049;28;20071;-52
2024/01/04 01:57:51;;;;;;;9.38;2.58;;;;;;;-22.99;54.49;99275.25;5095337;28;20396;-51
2024/01/04 02:00:17;;;;;;;8.27;1.80;;;;;;;-22.93;54.73;99273.00;5094926;28;20032;-53
2024/01/04 02:02:45;;;;;;;11.55;2.70;;;;;;;-22.97;54.63;99266.91;5095369;28;20058;-54
2024/01/04 02:05:11;;;;;;;7.57;2.20;;;;;;;-22.89;54.61;99272.31;5095247;28;20122;-55
2024/01/04 02:07:36;;;;;;;7.50;2.72;;;;;;;-22.84;54.52;99263.22;5094817;28;20107;-53
2024/01/04 02:10:02;;;;;;;8.52;2.85;;;;;;;-22.76;54.56;99266.09;5095536;28;20176;-51
2024/01/04 02:12:31;;;;;;;10.73;2.45;;;;;;;-22.69;54.36;99267.25;5094995;28;20065;-54
2024/01/04 02:14:57;;;;;;;8.32;2.67;;;;;;;-22.71;54.31;99263.78;5094693;28;20346;-56
2024/01/04 02:17:24;;;;;;;9.90;2.95;;;;;;;-22.85;54.27;99242.91;5094959;28;20032;-52
2024/01/04 02:19:50;;;;;;;6.93;2.83;;;;;;;-22.81;54.29;99254.91;5095004;28;20081;-54
2024/01/04 02:22:17;;;;;;;14.02;2.92;;;;;;;-22.80;54.33;99259.16;5094610;28;20035;-52
2024/01/04 02:24:44;;;;;;;5.97;2.65;;;;;;;-22.70;54.01;99265.50;5095096;28;20123;-55
2024/01/04 02:27:10;;;;;;;10.60;2.60;;;;;;;-23.08;54.16;99202.19;5095097;28;20463;-54
2024/01/04 02:29:35;;;;;;;9.55;2.97;;;;;;;-22.76;53.97;99250.03;5093482;28;20032;-50
2024/01/04 02:32:01;;;;;;;8.18;2.92;;;;;;;-22.84;53.96;99231.94;5093502;28;20101;-52
2024/01/04 02:34:26;;;;;;;9.65;2.13;;;;;;;-23.11;53.96;99187.72;5094360;28;20053;-55
2024/01/04 02:36:52;;;;;;;8.85;2.50;;;;;;;-22.69;54.06;99275.72;5094517;28;20391;-54
2024/01/04 02:39:18;;;;;;;5.55;3.17;;;;;;;-22.98;53.86;99222.06;5094096;28;20027;-50
2024/01/04 02:41:43;;;;;;;9.40;3.22;;;;;;;-22.96;54.42;99238.22;5094262;28;20111;-51
2024/01/04 02:44:09;;;;;;;9.98;2.92;;;;;;;-22.96;53.93;99272.84;5094615;28;20056;-54
2024/01/04 02:46:34;;;;;;;7.43;2.40;;;;;;;-23.49;54.55;99192.00;5093204;28;20507;-53
2024/01/04 02:49:00;;;;;;;9.00;2.65;;;;;;;-23.08;54.43;99257.09;5094160;28;20446;-52
2024/01/04 02:51:25;;;;;;;11.18;2.88;;;;;;;-23.08;54.17;99257.09;5093815;28;20413;-56
2024/01/04 02:53:51;;;;;;;4.22;1.98;;;;;;;-23.11;54.56;99253.63;5094354;28;20111;-56
2024/01/04 02:56:16;;;;;;;9.50;3.13;;;;;;;-23.14;54.37;99255.16;5094008;28;20040;-52
2024/01/04 02:58:45;;;;;;;4.85;2.05;;;;;;;-23.14;54.49;99233.22;5093768;28;20434;-53
2024/01/04 03:01:11;;;;;;;6.18;2.40;;;;;;;-23.08;54.58;99246.94;5093773;28;20024;-55
2024/01/04 03:03:37;;;;;;;4.53;1.83;;;;;;;-23.03;54.79;99243.81;5094375;28;20072;-51
2024/01/04 03:06:02;;;;;;;7.68;2.58;;;;;;;-22.81;53.92;99237.16;5094521;28;20397;-58
2024/01/04 03:08:28;;;;;;;5.13;2.20;;;;;;;-22.84;54.06;99252.25;5093560;28;20041;-55
2024/01/04 03:10:53;;;;;;;4.22;1.65;;;;;;;-22.81;53.97;99249.84;5093759;28;20061;-55
2024/01/04 03:13:19;;;;;;;7.35;2.38;;;;;;;-22.78;53.71;99233.84;5093975;28;20053;-52
2024/01/04 03:15:44;;;;;;;5.20;2.33;;;;;;;-22.86;53.83;99220.88;5094231;28;20114;-55
2024/01/04 03:18:10;;;;;;;8.18;2.58;;;;;;;-22.76;53.69;99220.47;5092284;28;20042;-51
2024/01/04 03:20:35;;;;;;;6.43;2.72;;;;;;;-22.67;53.61;99223.38;5093660;28;20170;-54
2024/01/04 03:23:01;;;;;;;7.45;2.42;;;;;;;-22.57;53.77;99222.09;5093956;28;20078;-52
2024/01/04 03:25:26;;;;;;;12.73;2.60;;;;;;;-22.48;53.77;99230.91;5093886;28;20020;-53
2024/01/04 03:27:52;;;;;;;5.93;2.35;;;;;;;-22.46;53.47;99235.22;5093156;28;20119;-55
2024/01/04 03:30:17;;;;;;;7.57;2.25;;;;;;;-22.45;53.69;99229.31;5093182;28;20024;-51
2024/01/04 03:32:43;;;;;;;7.28;2.13;;;;;;;-22.52;53.62;99229.91;5093552;28;20047;-55
2024/01/04 03:35:08;;;;;;;8.52;2.33;;;;;;;-22.54;53.06;99224.78;5092847;28;20043;-56
2024/01/04 03:37:34;;;;;;;10.00;2.33;;;;;;;-22.53;53.38;99238.31;5093333;28;20062;-49
2024/01/04 03:39:59;;;;;;;5.97;2.15;;;;;;;-22.59;53.46;99222.84;5093268;28;20051;-54
2024/01/04 03:42:25;;;;;;;4.93;2.20;;;;;;;-22.72;53.25;99229.91;5093250;28;20319;-56
2024/01/04 03:44:50;;;;;;;4.80;2.00;;;;;;;-22.73;53.31;99238.34;5093132;28;20081;-54
2024/01/04 03:47:16;;;;;;;5.70;2.05;;;;;;;-22.86;53.15;99228.47;5093118;28;20024;-55
2024/01/04 03:49:41;;;;;;;8.32;2.40;;;;;;;-22.93;53.78;99234.06;5092865;28;20111;-53
2024/01/04 03:52:07;;;;;;;8.20;2.38;;;;;;;-22.92;53.88;99233.28;5093761;28;20023;-55
2024/01/04 03:54:32;;;;;;;10.63;2.53;;;;;;;-22.98;53.61;99231.34;5092702;28;20113;-54
2024/01/04 03:56:58;;;;;;;6.18;2.58;;;;;;;-23.07;53.60;99219.13;5092940;28;20031;-55
2024/01/04 03:59:24;;;;;;;7.10;2.47;;;;;;;-23.06;53.74;99222.53;5092890;28;20043;-55
2024/01/04 04:01:49;;;;;;;5.63;2.10;;;;;;;-23.07;54.06;99224.22;5092889;28;20203;-51
2024/01/04 04:04:15;;;;;;;6.28;2.67;;;;;;;-23.50;54.04;99164.94;5092752;28;20065;-53
2024/01/04 04:06:41;;;;;;;4.80;1.65;;;;;;;-23.18;54.14;99226.28;5093167;28;20439;-55
2024/01/04 04:09:07;;;;;;;5.88;2.30;;;;;;;-23.27;54.44;99196.34;5093146;28;20028;-53
2024/01/04 04:11:33;;;;;;;6.22;1.98;;;;;;;-23.17;54.06;99220.41;5091639;28;20116;-51
2024/01/04 04:13:59;;;;;;;6.97;2.35;;;;;;;-23.25;54.29;99206.56;5093039;28;20040;-54
2024/01/04 04:16:25;;;;;;;6.70;2.15;;;;;;;-23.20;54.14;99227.88;5092609;28;20339;-52
2024/01/04 04:18:50;;;;;;;3.88;2.20;;;;;;;-23.19;54.11;99216.06;5092629;28;20032;-56
2024/01/04 04:21:20;;;;;;;11.13;2.65;;;;;;;-23.22;54.13;99219.34;5093058;28;20024;-54
2024/01/04 04:23:49;;;;;;;13.18;2.33;;;;;;;-23.20;54.27;99212.66;5092914;28;20032;-53
2024/01/04 04:26:23;;;;;;;8.63;2.70;;;;;;;-23.22;54.26;99206.66;5092370;28;20103;-56
2024/01/04 04:28:49;;;;;;;8.30;1.90;;;;;;;-23.25;54.32;99206.56;5092801;28;20040;-53
2024/01/04 04:31:17;;;;;;;4.32;2.22;;;;;;;-23.27;54.22;99211.56;5093021;28;20044;-55
2024/01/04 04:33:45;;;;;;;6.72;2.40;;;;;;;-23.29;54.13;99208.09;5092428;28;20031;-52
2024/01/04 04:36:11;;;;;;;7.05;2.22;;;;;;;-23.35;54.14;99191.75;5092799;28;20066;-56
2024/01/04 04:38:37;;;;;;;7.32;2.85;;;;;;;-23.31;54.05;99202.09;5092802;28;20036;-53
2024/01/04 04:41:04;;;;;;;5.35;1.85;;;;;;;-23.43;53.98;99199.00;5093079;28;20028;-50
2024/01/04 04:43:30;;;;;;;6.13;1.92;;;;;;;-23.11;53.67;99205.44;5092395;28;20054;-53
2024/01/04 04:45:56;;;;;;;8.60;3.38;;;;;;;-23.23;53.25;99183.78;5092726;28;20032;-53
2024/01/04 04:48:22;;;;;;;7.38;2.58;;;;;;;-23.36;53.22;99203.56;5092696;28;20024;-52
2024/01/04 04:50:49;;;;;;;7.13;2.53;;;;;;;-23.46;53.53;99214.06;5091891;28;20054;-48
2024/01/04 04:53:15;;;;;;;7.30;2.83;;;;;;;-23.59;53.63;99198.31;5092374;28;20024;-55
2024/01/04 04:55:40;;;;;;;3.28;1.52;;;;;;;-23.43;53.77;99215.06;5092463;28;20020;-51
2024/01/04 04:58:06;;;;;;;6.82;2.28;;;;;;;-23.52;53.58;99213.78;5092614;28;20046;-54
2024/01/04 05:00:31;;;;;;;7.40;2.55;;;;;;;-23.62;53.93;99198.19;5092734;28;20054;-55
2024/01/04 05:02:57;;;;;;;4.53;1.90;;;;;;;-24.00;53.60;99150.03;5092141;28;20055;-57
2024/01/04 05:05:22;;;;;;;11.48;3.03;;;;;;;-23.59;53.85;99211.00;5092019;28;20047;-53
2024/01/04 05:07:48;;;;;;;5.18;2.00;;;;;;;-23.59;53.83;99212.63;5092440;28;20032;-57
2024/01/04 05:10:13;;;;;;;13.68;3.15;;;;;;;-23.97;53.71;99151.84;5094651;28;20103;-57
2024/01/04 05:12:39;;;;;;;8.43;2.67;;;;;;;-23.64;53.71;99207.34;5096180;28;20143;-53
2024/01/04 05:15:05;;;;;;;7.88;2.15;;;;;;;-23.65;53.85;99204.78;5095879;28;20060;-54
2024/01/04 05:17:31;;;;;;;5.45;2.10;;;;;;;-23.62;53.42;99205.78;5096265;28;20024;-53
2024/01/04 05:19:56;;;;;;;10.95;2.90;;;;;;;-23.66;53.78;99208.94;5096257;28;20345;-52
2024/01/04 05:22:22;;;;;;;7.03;2.58;;;;;;;-23.69;53.66;99206.28;5095629;28;20107;-52
2024/01/04 05:24:47;;;;;;;9.30;2.30;;;;;;;-23.68;53.78;99208.03;5095040;28;20034;-55
2024/01/04 05:27:13;;;;;;;9.60;3.08;;;;;;;-23.61;53.76;99205.00;5095707;28;20408;-50
2024/01/04 05:29:38;;;;;;;12.30;3.50;;;;;;;-23.61;54.00;99220.19;5095326;28;20077;-51
2024/01/04 05:32:05;;;;;;;10.57;2.45;;;;;;;-23.61;53.88;99217.66;5095143;28;20063;-51
2024/01/04 05:34:32;;;;;;;6.95;2.90;;;;;;;-23.68;53.78;99208.03;5094994;28;20047;-52
2024/01/04 05:37:00;;;;;;;9.40;2.40;;;;;;;-23.58;53.65;99230.44;5094906;28;20036;-54
2024/01/04 05:39:26;;;;;;;8.43;2.65;;;;;;;-23.55;53.75;99230.59;5094979;28;20526;-53
2024/01/04 05:41:52;;;;;;;13.20;3.38;;;;;;;-23.50;53.54;99223.22;5094944;28;20120;-52
2024/01/04 05:44:18;;;;;;;10.32;2.72;;;;;;;-23.56;53.67;99205.19;5093723;28;20426;-54
2024/01/04 05:46:43;;;;;;;14.68;3.22;;;;;;;-23.46;53.32;99207.34;5095224;28;20435;-50
2024/01/04 05:49:10;;;;;;;14.93;3.42;;;;;;;-23.42;53.68;99215.94;5095117;28;20408;-52
2024/01/04 05:51:35;;;;;;;5.55;2.83;;;;;;;-23.38;53.53;99212.75;5095285;28;20020;-50
2024/01/04 05:54:02;;;;;;;11.95;3.67;;;;;;;-23.36;53.57;99211.16;5095662;28;20093;-52
2024/01/04 05:56:28;;;;;;;8.43;3.10;;;;;;;-23.31;54.04;99214.75;5094485;28;20400;-50
2024/01/04 05:58:54;;;;;;;14.07;3.75;;;;;;;-23.20;53.41;99201.66;5095326;28;20375;-50
2024/01/04 06:01:19;;;;;;;9.15;2.63;;;;;;;-23.15;53.82;99202.72;5096256;28;20089;-56
2024/01/04 06:03:45;;;;;;;11.18;2.92;;;;;;;-23.40;53.61;99140.84;5095301;28;20047;-55
2024/01/04 06:06:18;;;;;;;13.18;2.78;;;;;;;-23.05;53.81;99182.03;5095180;28;20142;-57
2024/01/04 06:08:43;;;;;;;12.68;3.00;;;;;;;-22.96;53.49;99191.72;5095790;28;20475;-57
2024/01/04 06:11:09;;;;;;;17.42;2.92;;;;;;;-23.00;53.54;99155.22;5095336;28;20079;-54
2024/01/04 06:13:36;;;;;;;19.88;3.63;;;;;;;-22.67;53.44;99194.63;5094584;28;20266;-54
2024/01/04 06:16:08;;;;;;;2.78;1.45;;;;;;;-22.36;52.82;99200.06;5095130;28;20189;-54
2024/01/04 06:18:34;;;;;;;13.02;3.67;;;;;;;-22.46;52.70;99189.56;5094954;28;20024;-53
2024/01/04 06:21:00;;;;;;;6.93;2.60;;;;;;;-22.20;52.24;99187.16;5093338;28;20032;-53
2024/01/04 06:23:27;;;;;;;13.70;4.38;;;;;;;-22.46;52.72;99179.41;5094665;28;20031;-54
2024/01/04 06:25:53;;;;;;;8.82;3.55;;;;;;;-22.12;52.08;99183.28;5095172;28;20526;-56
2024/01/04 06:28:19;;;;;;;11.60;5.25;;;;;;;-22.19;52.30;99183.81;5094982;28;20118;-52
2024/01/04 06:30:46;;;;;;;25.67;6.82;;;;;;;-22.60;52.57;99183.06;5094475;28;20028;-49
2024/01/04 06:33:12;;;;;;;9.43;4.20;;;;;;;-22.24;52.26;99175.16;5094747;28;20067;-48
2024/01/04 06:35:37;;;;;;;16.95;4.63;;;;;;;-22.19;52.34;99182.97;5094985;28;20367;-50
2024/01/04 06:38:07;;;;;;;10.20;2.88;;;;;;;-22.60;52.53;99134.84;5094869;28;20040;-49
2024/01/04 06:40:38;;;;;;;20.52;5.15;;;;;;;-22.32;52.88;99199.38;5093286;28;20466;-50
2024/01/04 06:43:08;;;;;;;9.45;2.80;;;;;;;-22.19;52.76;99199.03;5094662;28;20059;-50
2024/01/04 06:45:37;;;;;;;8.50;3.22;;;;;;;-22.16;52.59;99183.97;5093977;28;20023;-52
2024/01/04 06:48:03;;;;;;;13.88;3.97;;;;;;;-21.90;52.31;99176.50;5094373;28;20128;-50
2024/01/04 06:50:29;;;;;;;16.35;3.83;;;;;;;-21.81;52.49;99187.00;5094148;28;20076;-52
2024/01/04 06:52:55;;;;;;;9.75;4.10;;;;;;;-21.12;52.95;99169.13;5094265;28;20036;-51
2024/01/04 06:55:20;;;;;;;8.40;2.70;;;;;;;-19.44;50.82;99175.25;5094972;28;20032;-51
2024/01/04 06:57:46;;;;;;;11.75;3.95;;;;;;;-17.73;48.96;99171.03;5094274;28;20461;-49
2024/01/04 07:00:12;;;;;;;14.52;4.35;;;;;;;-15.95;45.92;99163.25;5093996;28;20024;-49
2024/01/04 07:02:38;;;;;;;15.63;4.55;;;;;;;-14.17;43.63;99167.06;5093180;28;20515;-52
2024/01/04 07:05:07;;;;;;;14.55;5.18;;;;;;;-12.91;41.09;99160.91;5094433;28;20032;-49
2024/01/04 07:07:34;;;;;;;8.55;3.33;;;;;;;-12.43;41.14;99160.19;5093984;28;20027;-48
2024/01/04 07:10:00;;;;;;;24.33;7.80;;;;;;;-12.48;39.97;99174.81;5093519;28;20107;-50
2024/01/04 07:12:26;;;;;;;17.55;6.22;;;;;;;-12.33;39.42;99179.13;5093764;28;20447;-49
2024/01/04 07:14:52;;;;;;;28.38;7.60;;;;;;;-11.76;38.42;99168.81;5094182;28;20020;-48
2024/01/04 07:17:18;;;;;;;15.45;5.85;;;;;;;-10.46;37.00;99151.13;5094215;28;20034;-51
2024/01/04 07:19:44;;;;;;;22.65;7.80;;;;;;;-9.88;35.81;99139.47;5093587;28;20097;-50
2024/01/04 07:22:10;;;;;;;20.83;7.97;;;;;;;-9.86;34.54;99160.19;5093649;28;20027;-50
2024/01/04 07:24:36;;;;;;;24.05;7.60;;;;;;;-10.51;33.97;99164.09;5094105;28;20051;-50
2024/01/04 07:27:03;;;;;;;18.38;7.25;;;;;;;-10.94;35.08;99159.16;5093485;28;20378;-50
2024/01/04 07:29:30;;;;;;;26.55;7.43;;;;;;;-11.41;34.52;99174.78;5093573;28;20024;-47
2024/01/04 07:31:56;;;;;;;20.40;6.53;;;;;;;-12.00;34.98;99111.16;5092953;28;20113;-48
2024/01/04 07:34:22;;;;;;;16.83;6.78;;;;;;;-11.98;34.64;99173.09;5093033;28;20066;-54
2024/01/04 07:36:48;;;;;;;20.45;7.53;;;;;;;-12.43;34.76;99180.81;5093730;28;20410;-52
2024/01/04 07:39:14;;;;;;;17.75;6.68;;;;;;;-13.00;35.79;99181.50;5093266;28;20119;-52
2024/01/04 07:41:41;;;;;;;23.20;7.45;;;;;;;-13.87;36.35;99186.16;5093243;28;20050;-57
2024/01/04 07:44:07;;;;;;;21.52;7.55;;;;;;;-14.60;36.98;99176.06;5093302;28;20115;-55
2024/01/04 07:46:33;;;;;;;18.88;6.85;;;;;;;-15.18;38.47;99182.31;5093022;28;20039;-55
2024/01/04 07:48:59;;;;;;;23.02;8.07;;;;;;;-16.13;37.31;99192.91;5093276;28;20036;-56
2024/01/04 07:51:24;;;;;;;22.70;7.70;;;;;;;-16.95;39.43;99187.16;5093074;28;20028;-55
2024/01/04 07:53:50;;;;;;;10.18;4.05;;;;;;;-17.43;40.60;99193.88;5092867;28;20042;-58
2024/01/04 07:56:15;;;;;;;25.75;8.23;;;;;;;-18.13;41.09;99187.19;5093348;28;20047;-56
2024/01/04 07:58:41;;;;;;;14.15;5.22;;;;;;;-18.40;42.43;99184.84;5092622;28;20217;-57
2024/01/04 08:01:06;;;;;;;20.48;5.95;;;;;;;-19.46;42.94;99130.16;5092420;28;20035;-54
2024/01/04 08:03:32;;;;;;;18.70;5.65;;;;;;;-19.53;43.52;99165.69;5093076;28;20035;-54
2024/01/04 08:05:59;;;;;;;8.10;2.63;;;;;;;-19.51;44.32;99192.09;5092892;28;20020;-50
2024/01/04 08:08:26;;;;;;;10.65;3.72;;;;;;;-19.85;45.01;99192.75;5091747;28;20028;-53
2024/01/04 08:10:52;;;;;;;18.88;4.68;;;;;;;-19.93;45.60;99184.91;5093133;28;20036;-50
2024/01/04 08:13:18;;;;;;;14.13;4.88;;;;;;;-19.80;45.14;99194.59;5093193;28;20024;-57
2024/01/04 08:15:43;;;;;;;12.20;4.05;;;;;;;-19.78;46.01;99189.56;5092631;28;20028;-52
2024/01/04 08:18:09;;;;;;;13.90;5.07;;;;;;;-19.60;45.57;99196.91;5092670;28;20060;-51
2024/01/04 08:20:34;;;;;;;18.77;5.00;;;;;;;-19.40;45.39;99196.63;5092948;28;20031;-51
2024/01/04 08:23:00;;;;;;;16.02;4.63;;;;;;;-19.17;44.54;99204.09;5091951;28;20138;-53
2024/01/04 08:25:27;;;;;;;12.80;5.28;;;;;;;-18.97;43.63;99204.59;5092678;28;20043;-53
2024/01/04 08:27:53;;;;;;;18.05;4.70;;;;;;;-19.28;44.21;99197.00;5092666;28;20363;-54
2024/01/04 08:30:19;;;;;;;16.75;4.82;;;;;;;-19.15;44.81;99192.22;5093169;28;20032;-51
2024/01/04 08:32:44;;;;;;;17.15;5.55;;;;;;;-19.00;44.28;99167.16;5092599;28;20108;-56
2024/01/04 08:35:10;;;;;;;17.23;6.10;;;;;;;-18.73;44.39;99180.56;5091405;28;20607;-53
2024/01/04 08:37:35;;;;;;;19.77;6.53;;;;;;;-18.66;44.10;99170.56;5092447;28;20390;-54
2024/01/04 08:40:01;;;;;;;19.98;6.47;;;;;;;-18.35;44.02;99183.25;5092761;28;20036;-53
2024/01/04 08:42:27;;;;;;;25.77;7.40;;;;;;;-18.08;43.50;99169.44;5092754;28;20346;-57
2024/01/04 08:44:53;;;;;;;23.30;6.03;;;;;;;-17.91;43.21;99172.34;5095256;28;20362;-57
2024/01/04 08:47:18;;;;;;;18.15;5.45;;;;;;;-17.84;42.80;99161.44;5096325;28;20020;-54
2024/01/04 08:49:44;;;;;;;18.13;5.50;;;;;;;-17.77;42.75;99170.97;5096943;28;20035;-54
2024/01/04 08:52:09;;;;;;;19.13;6.43;;;;;;;-17.78;43.22;99161.59;5096949;28;20435;-55
2024/01/04 08:54:35;;;;;;;18.63;7.15;;;;;;;-17.63;42.40;99170.41;5096344;28;20031;-54
2024/01/04 08:57:00;;;;;;;8.70;2.65;;;;;;;-17.49;42.36;99158.78;5096415;28;20059;-51
2024/01/04 08:59:26;;;;;;;17.17;5.90;;;;;;;-17.86;43.02;99175.00;5097202;28;20031;-50
2024/01/04 09:01:51;;;;;;;20.30;6.95;;;;;;;-17.96;43.48;99181.59;5096721;28;20137;-57
2024/01/04 09:04:20;;;;;;;27.02;7.40;;;;;;;-17.91;43.56;99165.56;5096071;28;20090;-54
2024/01/04 09:06:45;;;;;;;21.83;6.35;;;;;;;-17.81;43.93;99146.19;5096107;28;20036;-52
2024/01/04 09:09:11;;;;;;;27.08;9.98;;;;;;;-17.53;42.85;99181.72;5096636;28;20032;-54
2024/01/04 09:11:41;;;;;;;30.17;9.98;;;;;;;-17.81;43.22;99138.50;5096599;28;20028;-53
2024/01/04 09:14:11;;;;;;;35.65;10.65;;;;;;;-17.64;42.73;99169.56;5095714;28;20027;-52
2024/01/04 09:16:39;;;;;;;35.33;10.23;;;;;;;-17.90;42.74;99154.50;5096090;28;20073;-56
2024/01/04 09:19:05;;;;;;;28.00;9.73;;;;;;;-18.00;43.03;99170.44;5096397;28;20374;-54
2024/01/04 09:21:31;;;;;;;36.85;10.05;;;;;;;-18.17;43.38;99156.44;5096214;28;20027;-52
2024/01/04 09:23:56;;;;;;;27.20;9.93;;;;;;;-18.38;44.19;99165.31;5095838;28;20036;-56
2024/01/04 09:26:22;;;;;;;23.20;7.75;;;;;;;-18.47;44.76;99142.94;5095925;28;20031;-55
2024/01/04 09:28:48;;;;;;;20.83;7.60;;;;;;;-18.50;44.74;99147.97;5095808;28;20028;-53
2024/01/04 09:31:13;;;;;;;20.10;6.78;;;;;;;-18.58;44.76;99149.47;5095670;28;20075;-56
2024/01/04 09:33:40;;;;;;;19.83;6.97;;;;;;;-18.67;44.89;99143.31;5095600;28;20070;-55
2024/01/04 09:36:06;;;;;;;20.83;6.78;;;;;;;-18.70;44.92;99156.00;5095606;28;20166;-54
2024/01/04 09:38:34;;;;;;;20.45;6.28;;;;;;;-18.76;45.41;99155.84;5095773;28;20085;-55
2024/01/04 09:41:25;;;;;;;18.92;6.35;;;;;;;-18.68;45.39;99146.69;5095532;28;20481;-54
2024/01/04 09:43:55;;;;;;;15.48;5.70;;;;;;;-18.69;45.17;99138.97;5095464;28;20358;-56
2024/01/04 09:46:24;;;;;;;19.83;5.63;;;;;;;-18.70;45.00;99148.34;5095633;28;20067;-54
2024/01/04 09:49:01;;;;;;;17.80;6.13;;;;;;;-18.78;44.98;99145.56;5095082;28;20032;-58
2024/01/04 09:51:34;;;;;;;21.20;5.32;;;;;;;-18.82;45.38;99122.47;5095662;28;20057;-53
2024/01/04 09:54:04;;;;;;;17.70;6.53;;;;;;;-18.67;45.49;99143.31;5095318;28;20036;-52
2024/01/04 09:56:30;;;;;;;21.25;6.13;;;;;;;-18.55;45.15;99152.97;5094699;28;20028;-52
2024/01/04 09:58:56;;;;;;;11.05;4.63;;;;;;;-18.39;45.15;99136.31;5094948;28;20324;-55
2024/01/04 10:01:33;;;;;;;18.20;5.65;;;;;;;-18.29;44.62;99144.25;5095486;28;20039;-52
2024/01/04 10:04:04;;;;;;;19.02;6.88;;;;;;;-18.37;44.83;99144.88;5095334;28;20473;-56
2024/01/04 10:06:32;;;;;;;14.73;5.57;;;;;;;-18.42;44.77;99145.63;5095506;28;20059;-56
2024/01/04 10:09:05;;;;;;;21.08;6.30;;;;;;;-18.75;44.88;99096.31;5095558;28;20084;-54
2024/01/04 10:11:37;;;;;;;15.00;5.50;;;;;;;-18.53;44.65;99145.34;5094121;28;20438;-52
2024/01/04 10:14:03;;;;;;;21.80;7.05;;;;;;;-18.62;45.05;99143.44;5094852;28;20067;-52
2024/01/04 10:16:29;;;;;;;23.10;7.13;;;;;;;-18.75;45.36;99137.16;5095785;28;20070;-56
2024/01/04 10:18:57;;;;;;;20.13;7.45;;;;;;;-18.83;45.37;99139.50;5095096;28;20051;-54
2024/01/04 10:21:31;;;;;;;17.55;6.20;;;;;;;-18.79;45.89;99145.56;5094782;28;20024;-58
2024/01/04 10:24:00;;;;;;;19.92;6.97;;;;;;;-18.80;45.83;99143.81;5094531;28;20032;-51
2024/01/04 10:26:27;;;;;;;20.83;7.03;;;;;;;-18.88;45.59;99138.50;5094930;28;20043;-54
2024/01/04 10:28:59;;;;;;;15.68;5.70;;;;;;;-18.92;45.63;99140.09;5093603;28;20160;-49
2024/01/04 10:31:26;;;;;;;20.15;7.10;;;;;;;-18.92;45.92;99139.25;5094228;28;20052;-57
2024/01/04 10:33:59;;;;;;;17.98;6.28;;;;;;;-18.86;46.16;99148.75;5094702;28;20062;-56
2024/01/04 10:36:28;;;;;;;18.73;5.93;;;;;;;-18.80;46.04;99141.28;5095043;28;20036;-56
2024/01/04 10:38:58;;;;;;;26.98;7.13;;;;;;;-18.87;46.02;99116.41;5094431;28;20052;-56
2024/01/04 10:41:28;;;;;;;27.65;7.68;;;;;;;-18.87;46.26;99106.19;5094318;28;20059;-56
2024/01/04 10:44:05;;;;;;;22.95;7.22;;;;;;;-18.64;45.79;99148.47;5094499;28;20024;-58
2024/01/04 10:46:35;;;;;;;22.65;7.50;;;;;;;-18.61;45.64;99140.06;5094956;28;20343;-55
2024/01/04 10:49:02;;;;;;;20.80;7.53;;;;;;;-18.55;46.24;99150.41;5093609;28;20028;-55
2024/01/04 10:51:32;;;;;;;18.40;7.30;;;;;;;-18.48;45.89;99146.34;5093051;28;20028;-54
2024/01/04 10:54:01;;;;;;;18.38;7.30;;;;;;;-18.42;45.81;99126.03;5094153;28;20052;-55
2024/01/04 10:56:35;;;;;;;34.22;9.93;;;;;;;-18.43;45.69;99134.53;5094469;28;20028;-54
2024/01/04 10:59:03;;;;;;;24.77;9.07;;;;;;;-18.42;46.17;99133.69;5094355;28;20446;-53
2024/01/04 11:01:29;;;;;;;41.92;10.48;;;;;;;-18.41;46.58;99122.66;5094018;28;20028;-54
2024/01/04 11:03:55;;;;;;;23.85;7.82;;;;;;;-18.31;46.63;99128.84;5094271;28;20115;-53
2024/01/04 11:06:28;;;;;;;24.75;7.50;;;;;;;-18.25;46.46;99129.00;5094298;28;20106;-53
2024/01/04 11:08:57;;;;;;;23.45;7.07;;;;;;;-18.18;45.99;99114.69;5092984;28;20119;-52
2024/01/04 11:11:25;;;;;;;22.70;7.05;;;;;;;-18.06;46.06;99116.66;5093467;28;20116;-54
2024/01/04 11:13:51;;;;;;;29.83;9.70;;;;;;;-18.05;45.68;99114.16;5093041;28;20093;-56
2024/01/04 11:16:22;;;;;;;26.40;8.32;;;;;;;-18.03;45.96;99126.94;5093889;28;20393;-57
2024/01/04 11:19:20;;;;;;;25.63;8.00;;;;;;;-18.00;46.22;99128.69;5093612;28;20032;-55